sensor_id;sensor_type;location;lat;lon;timestamp;temperature;humidity
24011;DHT22;12217;50.792;4.372;2022-07-29T00:01:18;21.30;99.90
24011;DHT22;12217;50.792;4.372;2022-07-29T00:03:43;21.30;99.90
24011;DHT22;12217;50.792;4.372;2022-07-29T00:06:09;21.30;99.90
24011;DHT22;12217;50.792;4.372;2022-07-29T00:08:34;21.30;99.90
24011;DHT22;12217;50.792;4.372;2022-07-29T00:11:01;21.30;99.90
24011;DHT22;12217;50.792;4.372;2022-07-29T00:13:27;21.30;99.90
24011;DHT22;12217;50.792;4.372;2022-07-29T00:15:52;21.30;99.90
24011;DHT22;12217;50.792;4.372;2022-07-29T00:18:18;21.30;99.90
24011;DHT22;12217;50.792;4.372;2022-07-29T00:20:43;21.30;99.90
24011;DHT22;12217;50.792;4.372;2022-07-29T00:23:09;21.20;99.90
24011;DHT22;12217;50.792;4.372;2022-07-29T00:25:35;21.10;99.90
24011;DHT22;12217;50.792;4.372;2022-07-29T00:28:00;20.90;99.90
24011;DHT22;12217;50.792;4.372;2022-07-29T00:30:26;20.90;99.90
24011;DHT22;12217;50.792;4.372;2022-07-29T00:32:51;20.90;99.90
24011;DHT22;12217;50.792;4.372;2022-07-29T00:35:17;21.00;99.90
24011;DHT22;12217;50.792;4.372;2022-07-29T00:38:01;21.00;99.90
24011;DHT22;12217;50.792;4.372;2022-07-29T00:40:27;20.90;99.90
24011;DHT22;12217;50.792;4.372;2022-07-29T00:42:53;21.00;99.90
24011;DHT22;12217;50.792;4.372;2022-07-29T00:45:19;21.00;99.90
24011;DHT22;12217;50.792;4.372;2022-07-29T00:47:45;21.00;99.90
24011;DHT22;12217;50.792;4.372;2022-07-29T00:50:11;20.90;99.90
24011;DHT22;12217;50.792;4.372;2022-07-29T00:52:39;20.90;99.90
24011;DHT22;12217;50.792;4.372;2022-07-29T00:55:07;20.90;99.90
24011;DHT22;12217;50.792;4.372;2022-07-29T00:57:35;20.90;99.90
24011;DHT22;12217;50.792;4.372;2022-07-29T01:00:01;20.80;99.90
24011;DHT22;12217;50.792;4.372;2022-07-29T01:02:26;20.70;99.90
24011;DHT22;12217;50.792;4.372;2022-07-29T01:04:53;20.70;99.90
24011;DHT22;12217;50.792;4.372;2022-07-29T01:07:19;20.70;99.90
24011;DHT22;12217;50.792;4.372;2022-07-29T01:09:45;20.60;99.90
24011;DHT22;12217;50.792;4.372;2022-07-29T01:12:22;20.50;99.90
24011;DHT22;12217;50.792;4.372;2022-07-29T01:14:50;20.50;99.90
24011;DHT22;12217;50.792;4.372;2022-07-29T01:17:43;20.50;99.90
24011;DHT22;12217;50.792;4.372;2022-07-29T01:20:40;20.40;99.90
24011;DHT22;12217;50.792;4.372;2022-07-29T01:34:05;20.30;99.90
24011;DHT22;12217;50.792;4.372;2022-07-29T01:36:38;20.30;99.90
24011;DHT22;12217;50.792;4.372;2022-07-29T01:39:12;20.20;99.90
24011;DHT22;12217;50.792;4.372;2022-07-29T01:41:48;20.20;99.90
24011;DHT22;12217;50.792;4.372;2022-07-29T01:44:30;20.20;99.90
24011;DHT22;12217;50.792;4.372;2022-07-29T01:46:59;20.20;99.90
24011;DHT22;12217;50.792;4.372;2022-07-29T01:49:28;20.20;99.90
24011;DHT22;12217;50.792;4.372;2022-07-29T01:52:08;20.10;99.90
24011;DHT22;12217;50.792;4.372;2022-07-29T01:54:39;20.10;99.90
24011;DHT22;12217;50.792;4.372;2022-07-29T01:57:13;20.00;99.90
24011;DHT22;12217;50.792;4.372;2022-07-29T01:59:40;20.00;99.90
24011;DHT22;12217;50.792;4.372;2022-07-29T02:02:08;20.00;99.90
24011;DHT22;12217;50.792;4.372;2022-07-29T02:04:37;20.00;99.90
24011;DHT22;12217;50.792;4.372;2022-07-29T02:07:05;20.00;99.90
24011;DHT22;12217;50.792;4.372;2022-07-29T02:09:35;19.90;99.90
24011;DHT22;12217;50.792;4.372;2022-07-29T02:12:02;19.80;99.90
24011;DHT22;12217;50.792;4.372;2022-07-29T02:14:31;19.90;99.90
24011;DHT22;12217;50.792;4.372;2022-07-29T02:17:00;19.90;99.90
24011;DHT22;12217;50.792;4.372;2022-07-29T02:19:27;19.90;99.90
24011;DHT22;12217;50.792;4.372;2022-07-29T02:21:55;19.80;99.90
24011;DHT22;12217;50.792;4.372;2022-07-29T02:24:23;19.80;99.90
24011;DHT22;12217;50.792;4.372;2022-07-29T02:26:50;19.80;99.90
24011;DHT22;12217;50.792;4.372;2022-07-29T02:29:17;19.70;99.90
24011;DHT22;12217;50.792;4.372;2022-07-29T02:31:46;19.70;99.90
24011;DHT22;12217;50.792;4.372;2022-07-29T02:34:12;19.80;99.90
24011;DHT22;12217;50.792;4.372;2022-07-29T02:36:40;19.70;99.90
24011;DHT22;12217;50.792;4.372;2022-07-29T02:39:08;19.60;99.90
24011;DHT22;12217;50.792;4.372;2022-07-29T02:41:41;19.50;99.90
24011;DHT22;12217;50.792;4.372;2022-07-29T02:44:15;19.50;99.90
24011;DHT22;12217;50.792;4.372;2022-07-29T02:47:34;19.50;99.90
24011;DHT22;12217;50.792;4.372;2022-07-29T02:52:02;19.50;99.90
24011;DHT22;12217;50.792;4.372;2022-07-29T02:54:39;19.50;99.90
24011;DHT22;12217;50.792;4.372;2022-07-29T02:57:42;19.50;99.90
24011;DHT22;12217;50.792;4.372;2022-07-29T03:00:10;19.40;99.90
24011;DHT22;12217;50.792;4.372;2022-07-29T03:02:40;19.40;99.90
24011;DHT22;12217;50.792;4.372;2022-07-29T03:05:11;19.40;99.90
24011;DHT22;12217;50.792;4.372;2022-07-29T03:07:39;19.40;99.90
24011;DHT22;12217;50.792;4.372;2022-07-29T03:10:07;19.40;99.90
24011;DHT22;12217;50.792;4.372;2022-07-29T03:12:34;19.40;99.90
24011;DHT22;12217;50.792;4.372;2022-07-29T03:15:01;19.30;99.90
24011;DHT22;12217;50.792;4.372;2022-07-29T03:17:27;19.30;99.90
24011;DHT22;12217;50.792;4.372;2022-07-29T03:19:53;19.30;99.90
24011;DHT22;12217;50.792;4.372;2022-07-29T03:22:20;19.20;99.90
24011;DHT22;12217;50.792;4.372;2022-07-29T03:24:45;19.20;99.90
24011;DHT22;12217;50.792;4.372;2022-07-29T03:27:11;19.20;99.90
24011;DHT22;12217;50.792;4.372;2022-07-29T03:29:37;19.20;99.90
24011;DHT22;12217;50.792;4.372;2022-07-29T03:32:04;19.20;99.90
24011;DHT22;12217;50.792;4.372;2022-07-29T03:34:30;19.10;99.90
24011;DHT22;12217;50.792;4.372;2022-07-29T03:36:56;19.10;99.90
24011;DHT22;12217;50.792;4.372;2022-07-29T03:39:25;19.10;99.90
24011;DHT22;12217;50.792;4.372;2022-07-29T03:41:55;19.00;99.90
24011;DHT22;12217;50.792;4.372;2022-07-29T03:44:21;18.90;99.90
24011;DHT22;12217;50.792;4.372;2022-07-29T03:46:50;18.90;99.90
24011;DHT22;12217;50.792;4.372;2022-07-29T03:49:16;18.90;99.90
24011;DHT22;12217;50.792;4.372;2022-07-29T03:51:43;18.90;99.90
24011;DHT22;12217;50.792;4.372;2022-07-29T03:54:08;18.90;99.90
24011;DHT22;12217;50.792;4.372;2022-07-29T03:56:38;18.80;99.90
24011;DHT22;12217;50.792;4.372;2022-07-29T03:59:05;18.80;99.90
24011;DHT22;12217;50.792;4.372;2022-07-29T04:01:33;18.70;99.90
24011;DHT22;12217;50.792;4.372;2022-07-29T04:04:00;18.60;99.90
24011;DHT22;12217;50.792;4.372;2022-07-29T04:06:26;18.60;99.90
24011;DHT22;12217;50.792;4.372;2022-07-29T04:08:51;18.60;99.90
24011;DHT22;12217;50.792;4.372;2022-07-29T04:11:17;18.50;99.90
24011;DHT22;12217;50.792;4.372;2022-07-29T04:13:43;18.50;99.90
24011;DHT22;12217;50.792;4.372;2022-07-29T04:16:08;18.40;99.90
24011;DHT22;12217;50.792;4.372;2022-07-29T04:18:34;18.50;99.90
24011;DHT22;12217;50.792;4.372;2022-07-29T04:21:00;18.40;99.90
24011;DHT22;12217;50.792;4.372;2022-07-29T04:23:28;18.40;99.90
24011;DHT22;12217;50.792;4.372;2022-07-29T04:25:54;18.30;99.90
24011;DHT22;12217;50.792;4.372;2022-07-29T04:28:20;18.30;99.90
24011;DHT22;12217;50.792;4.372;2022-07-29T04:30:45;18.30;99.90
24011;DHT22;12217;50.792;4.372;2022-07-29T04:33:11;18.50;99.90
24011;DHT22;12217;50.792;4.372;2022-07-29T04:35:37;18.40;99.90
24011;DHT22;12217;50.792;4.372;2022-07-29T04:38:04;18.50;99.90
24011;DHT22;12217;50.792;4.372;2022-07-29T04:40:30;18.40;99.90
24011;DHT22;12217;50.792;4.372;2022-07-29T04:42:56;18.50;99.90
24011;DHT22;12217;50.792;4.372;2022-07-29T04:45:21;18.50;99.90
24011;DHT22;12217;50.792;4.372;2022-07-29T04:47:47;18.30;99.90
24011;DHT22;12217;50.792;4.372;2022-07-29T04:50:13;18.30;99.90
24011;DHT22;12217;50.792;4.372;2022-07-29T04:52:38;18.30;99.90
24011;DHT22;12217;50.792;4.372;2022-07-29T04:55:05;18.20;99.90
24011;DHT22;12217;50.792;4.372;2022-07-29T04:57:31;18.20;99.90
24011;DHT22;12217;50.792;4.372;2022-07-29T04:59:56;18.20;99.90
24011;DHT22;12217;50.792;4.372;2022-07-29T05:02:22;18.40;99.90
24011;DHT22;12217;50.792;4.372;2022-07-29T05:04:48;18.50;99.90
24011;DHT22;12217;50.792;4.372;2022-07-29T05:07:14;18.50;99.90
24011;DHT22;12217;50.792;4.372;2022-07-29T05:09:39;18.50;99.90
24011;DHT22;12217;50.792;4.372;2022-07-29T05:12:06;18.60;99.90
24011;DHT22;12217;50.792;4.372;2022-07-29T05:14:32;18.70;99.90
24011;DHT22;12217;50.792;4.372;2022-07-29T05:16:58;18.70;99.90
24011;DHT22;12217;50.792;4.372;2022-07-29T05:19:23;18.80;99.90
24011;DHT22;12217;50.792;4.372;2022-07-29T05:21:49;18.80;99.90
24011;DHT22;12217;50.792;4.372;2022-07-29T05:24:15;18.90;99.90
24011;DHT22;12217;50.792;4.372;2022-07-29T05:26:41;19.00;99.90
24011;DHT22;12217;50.792;4.372;2022-07-29T05:29:07;19.10;99.90
24011;DHT22;12217;50.792;4.372;2022-07-29T05:31:33;19.20;99.90
24011;DHT22;12217;50.792;4.372;2022-07-29T05:33:59;19.30;99.90
24011;DHT22;12217;50.792;4.372;2022-07-29T05:36:25;19.30;99.90
24011;DHT22;12217;50.792;4.372;2022-07-29T05:38:51;19.40;99.90
24011;DHT22;12217;50.792;4.372;2022-07-29T05:41:18;19.40;99.90
24011;DHT22;12217;50.792;4.372;2022-07-29T05:43:43;19.40;99.90
24011;DHT22;12217;50.792;4.372;2022-07-29T05:46:09;19.40;99.90
24011;DHT22;12217;50.792;4.372;2022-07-29T05:48:35;19.40;99.90
24011;DHT22;12217;50.792;4.372;2022-07-29T05:51:01;19.30;99.90
24011;DHT22;12217;50.792;4.372;2022-07-29T05:53:27;19.30;99.90
24011;DHT22;12217;50.792;4.372;2022-07-29T05:55:53;19.30;99.90
24011;DHT22;12217;50.792;4.372;2022-07-29T05:58:18;19.50;99.90
24011;DHT22;12217;50.792;4.372;2022-07-29T06:00:44;19.50;99.90
24011;DHT22;12217;50.792;4.372;2022-07-29T06:03:11;19.70;99.90
24011;DHT22;12217;50.792;4.372;2022-07-29T06:05:36;19.70;99.90
24011;DHT22;12217;50.792;4.372;2022-07-29T06:08:02;19.70;99.90
24011;DHT22;12217;50.792;4.372;2022-07-29T06:10:30;19.70;99.90
24011;DHT22;12217;50.792;4.372;2022-07-29T06:12:56;19.70;99.90
24011;DHT22;12217;50.792;4.372;2022-07-29T06:15:22;19.60;99.90
24011;DHT22;12217;50.792;4.372;2022-07-29T06:17:47;19.60;99.90
24011;DHT22;12217;50.792;4.372;2022-07-29T06:20:13;19.70;99.90
24011;DHT22;12217;50.792;4.372;2022-07-29T06:22:39;19.80;99.90
24011;DHT22;12217;50.792;4.372;2022-07-29T06:25:05;20.00;99.90
24011;DHT22;12217;50.792;4.372;2022-07-29T06:27:30;19.90;99.90
24011;DHT22;12217;50.792;4.372;2022-07-29T06:29:56;19.90;99.90
24011;DHT22;12217;50.792;4.372;2022-07-29T06:32:22;20.00;99.90
24011;DHT22;12217;50.792;4.372;2022-07-29T06:34:47;20.10;99.90
24011;DHT22;12217;50.792;4.372;2022-07-29T06:37:13;20.20;99.90
24011;DHT22;12217;50.792;4.372;2022-07-29T06:39:39;20.20;99.90
24011;DHT22;12217;50.792;4.372;2022-07-29T06:42:05;20.30;99.90
24011;DHT22;12217;50.792;4.372;2022-07-29T06:44:31;20.20;99.90
24011;DHT22;12217;50.792;4.372;2022-07-29T06:46:59;20.30;99.90
24011;DHT22;12217;50.792;4.372;2022-07-29T06:49:25;20.40;99.90
24011;DHT22;12217;50.792;4.372;2022-07-29T06:51:52;20.50;99.90
24011;DHT22;12217;50.792;4.372;2022-07-29T06:54:17;20.60;99.90
24011;DHT22;12217;50.792;4.372;2022-07-29T06:56:43;20.70;99.90
24011;DHT22;12217;50.792;4.372;2022-07-29T06:59:10;20.80;99.90
24011;DHT22;12217;50.792;4.372;2022-07-29T07:01:37;21.00;99.90
24011;DHT22;12217;50.792;4.372;2022-07-29T07:04:03;21.10;99.90
24011;DHT22;12217;50.792;4.372;2022-07-29T07:06:29;21.20;99.90
24011;DHT22;12217;50.792;4.372;2022-07-29T07:08:54;21.30;99.90
24011;DHT22;12217;50.792;4.372;2022-07-29T07:11:20;21.40;99.90
24011;DHT22;12217;50.792;4.372;2022-07-29T07:13:46;21.20;99.90
24011;DHT22;12217;50.792;4.372;2022-07-29T07:16:12;21.20;99.90
24011;DHT22;12217;50.792;4.372;2022-07-29T07:18:37;21.10;99.90
24011;DHT22;12217;50.792;4.372;2022-07-29T07:21:03;21.10;99.90
24011;DHT22;12217;50.792;4.372;2022-07-29T07:23:30;21.10;99.90
24011;DHT22;12217;50.792;4.372;2022-07-29T07:25:56;21.30;99.90
24011;DHT22;12217;50.792;4.372;2022-07-29T07:28:21;21.40;99.90
24011;DHT22;12217;50.792;4.372;2022-07-29T07:30:47;21.60;99.90
24011;DHT22;12217;50.792;4.372;2022-07-29T07:33:13;21.70;99.90
24011;DHT22;12217;50.792;4.372;2022-07-29T07:35:38;21.70;99.90
24011;DHT22;12217;50.792;4.372;2022-07-29T07:38:04;21.50;99.90
24011;DHT22;12217;50.792;4.372;2022-07-29T07:40:31;21.70;99.90
24011;DHT22;12217;50.792;4.372;2022-07-29T07:42:57;21.80;99.90
24011;DHT22;12217;50.792;4.372;2022-07-29T07:45:23;21.80;99.90
24011;DHT22;12217;50.792;4.372;2022-07-29T07:47:49;21.80;99.90
24011;DHT22;12217;50.792;4.372;2022-07-29T07:50:15;21.70;99.90
24011;DHT22;12217;50.792;4.372;2022-07-29T07:52:52;21.80;99.90
24011;DHT22;12217;50.792;4.372;2022-07-29T07:55:18;21.80;99.90
24011;DHT22;12217;50.792;4.372;2022-07-29T07:57:44;21.90;99.90
24011;DHT22;12217;50.792;4.372;2022-07-29T08:00:12;22.10;99.90
24011;DHT22;12217;50.792;4.372;2022-07-29T08:02:38;21.90;99.90
24011;DHT22;12217;50.792;4.372;2022-07-29T08:05:05;21.90;99.90
24011;DHT22;12217;50.792;4.372;2022-07-29T08:07:32;21.80;99.90
24011;DHT22;12217;50.792;4.372;2022-07-29T08:09:57;21.90;99.90
24011;DHT22;12217;50.792;4.372;2022-07-29T08:12:23;22.20;99.90
24011;DHT22;12217;50.792;4.372;2022-07-29T08:14:49;22.30;99.90
24011;DHT22;12217;50.792;4.372;2022-07-29T08:17:14;22.40;99.90
24011;DHT22;12217;50.792;4.372;2022-07-29T08:19:40;22.60;99.90
24011;DHT22;12217;50.792;4.372;2022-07-29T08:22:05;22.70;99.90
24011;DHT22;12217;50.792;4.372;2022-07-29T08:24:31;22.80;99.90
24011;DHT22;12217;50.792;4.372;2022-07-29T08:27:10;22.90;99.90
24011;DHT22;12217;50.792;4.372;2022-07-29T08:29:36;23.00;99.90
24011;DHT22;12217;50.792;4.372;2022-07-29T08:32:02;23.00;99.90
24011;DHT22;12217;50.792;4.372;2022-07-29T08:34:28;22.80;99.90
24011;DHT22;12217;50.792;4.372;2022-07-29T08:36:55;22.80;99.90
24011;DHT22;12217;50.792;4.372;2022-07-29T08:39:21;23.00;99.90
24011;DHT22;12217;50.792;4.372;2022-07-29T08:41:47;23.20;99.90
24011;DHT22;12217;50.792;4.372;2022-07-29T08:44:17;23.40;99.90
24011;DHT22;12217;50.792;4.372;2022-07-29T08:46:44;23.50;99.90
24011;DHT22;12217;50.792;4.372;2022-07-29T08:49:09;23.40;99.90
24011;DHT22;12217;50.792;4.372;2022-07-29T08:51:36;23.40;99.90
24011;DHT22;12217;50.792;4.372;2022-07-29T08:54:04;23.40;99.90
24011;DHT22;12217;50.792;4.372;2022-07-29T08:56:30;23.40;99.90
24011;DHT22;12217;50.792;4.372;2022-07-29T08:58:57;23.50;99.90
24011;DHT22;12217;50.792;4.372;2022-07-29T09:01:25;23.70;99.90
24011;DHT22;12217;50.792;4.372;2022-07-29T09:03:56;23.80;99.90
24011;DHT22;12217;50.792;4.372;2022-07-29T09:06:22;24.00;99.90
24011;DHT22;12217;50.792;4.372;2022-07-29T09:08:51;24.00;99.90
24011;DHT22;12217;50.792;4.372;2022-07-29T09:11:17;24.00;99.90
24011;DHT22;12217;50.792;4.372;2022-07-29T09:13:43;24.20;99.90
24011;DHT22;12217;50.792;4.372;2022-07-29T09:16:08;24.20;99.90
24011;DHT22;12217;50.792;4.372;2022-07-29T09:21:05;24.40;99.90
24011;DHT22;12217;50.792;4.372;2022-07-29T09:24:10;24.50;99.90
24011;DHT22;12217;50.792;4.372;2022-07-29T09:26:39;24.50;99.90
24011;DHT22;12217;50.792;4.372;2022-07-29T09:29:10;24.70;99.90
24011;DHT22;12217;50.792;4.372;2022-07-29T09:31:39;24.70;99.90
24011;DHT22;12217;50.792;4.372;2022-07-29T09:34:06;24.70;99.90
24011;DHT22;12217;50.792;4.372;2022-07-29T09:36:43;24.90;99.90
24011;DHT22;12217;50.792;4.372;2022-07-29T09:39:08;24.90;99.90
24011;DHT22;12217;50.792;4.372;2022-07-29T09:41:48;25.00;99.90
24011;DHT22;12217;50.792;4.372;2022-07-29T09:44:14;25.20;99.90
24011;DHT22;12217;50.792;4.372;2022-07-29T09:46:41;25.40;99.90
24011;DHT22;12217;50.792;4.372;2022-07-29T09:49:17;25.60;99.90
24011;DHT22;12217;50.792;4.372;2022-07-29T09:51:42;25.80;99.90
24011;DHT22;12217;50.792;4.372;2022-07-29T09:54:24;25.80;99.90
24011;DHT22;12217;50.792;4.372;2022-07-29T09:56:51;25.80;99.90
24011;DHT22;12217;50.792;4.372;2022-07-29T09:59:17;25.90;99.90
24011;DHT22;12217;50.792;4.372;2022-07-29T10:01:43;26.00;99.90
24011;DHT22;12217;50.792;4.372;2022-07-29T10:04:09;26.10;99.90
24011;DHT22;12217;50.792;4.372;2022-07-29T10:06:34;26.10;99.90
24011;DHT22;12217;50.792;4.372;2022-07-29T10:09:10;26.20;99.90
24011;DHT22;12217;50.792;4.372;2022-07-29T10:11:36;26.40;99.90
24011;DHT22;12217;50.792;4.372;2022-07-29T10:14:03;26.50;99.90
24011;DHT22;12217;50.792;4.372;2022-07-29T10:16:29;26.40;99.90
24011;DHT22;12217;50.792;4.372;2022-07-29T10:19:01;26.40;99.90
24011;DHT22;12217;50.792;4.372;2022-07-29T10:21:27;26.50;99.90
24011;DHT22;12217;50.792;4.372;2022-07-29T10:23:53;26.50;99.90
24011;DHT22;12217;50.792;4.372;2022-07-29T10:26:22;26.70;99.90
24011;DHT22;12217;50.792;4.372;2022-07-29T10:28:48;26.80;99.90
24011;DHT22;12217;50.792;4.372;2022-07-29T10:31:34;26.80;99.90
24011;DHT22;12217;50.792;4.372;2022-07-29T10:37:14;26.80;99.90
24011;DHT22;12217;50.792;4.372;2022-07-29T10:40:13;27.10;99.90
24011;DHT22;12217;50.792;4.372;2022-07-29T10:43:07;27.30;99.00
24011;DHT22;12217;50.792;4.372;2022-07-29T10:45:40;27.50;99.20
24011;DHT22;12217;50.792;4.372;2022-07-29T10:48:06;27.70;98.50
24011;DHT22;12217;50.792;4.372;2022-07-29T10:51:04;27.70;97.50
24011;DHT22;12217;50.792;4.372;2022-07-29T10:53:59;27.70;97.50
24011;DHT22;12217;50.792;4.372;2022-07-29T10:56:32;28.00;96.60
24011;DHT22;12217;50.792;4.372;2022-07-29T11:01:48;28.20;95.40
24011;DHT22;12217;50.792;4.372;2022-07-29T11:04:15;28.20;94.30
24011;DHT22;12217;50.792;4.372;2022-07-29T11:09:29;28.30;94.30
24011;DHT22;12217;50.792;4.372;2022-07-29T11:11:56;28.10;92.60
24011;DHT22;12217;50.792;4.372;2022-07-29T11:17:20;28.50;93.90
24011;DHT22;12217;50.792;4.372;2022-07-29T11:19:46;28.60;91.50
24011;DHT22;12217;50.792;4.372;2022-07-29T11:22:34;28.50;90.80
24011;DHT22;12217;50.792;4.372;2022-07-29T11:25:16;28.50;91.70
24011;DHT22;12217;50.792;4.372;2022-07-29T11:27:44;28.40;90.40
24011;DHT22;12217;50.792;4.372;2022-07-29T11:30:10;28.50;91.20
24011;DHT22;12217;50.792;4.372;2022-07-29T11:32:39;28.60;92.20
24011;DHT22;12217;50.792;4.372;2022-07-29T11:35:25;28.80;91.20
24011;DHT22;12217;50.792;4.372;2022-07-29T11:41:26;29.40;90.60
24011;DHT22;12217;50.792;4.372;2022-07-29T11:43:55;29.50;88.70
24011;DHT22;12217;50.792;4.372;2022-07-29T11:49:07;28.30;90.10
24011;DHT22;12217;50.792;4.372;2022-07-29T11:51:34;28.50;87.90
24011;DHT22;12217;50.792;4.372;2022-07-29T11:54:01;28.60;84.70
24011;DHT22;12217;50.792;4.372;2022-07-29T11:56:31;28.50;86.90
24011;DHT22;12217;50.792;4.372;2022-07-29T11:59:07;28.30;88.90
24011;DHT22;12217;50.792;4.372;2022-07-29T12:01:35;28.40;87.90
24011;DHT22;12217;50.792;4.372;2022-07-29T12:04:04;28.60;86.30
24011;DHT22;12217;50.792;4.372;2022-07-29T12:06:30;28.60;83.90
24011;DHT22;12217;50.792;4.372;2022-07-29T12:08:56;28.90;84.70
24011;DHT22;12217;50.792;4.372;2022-07-29T12:11:22;29.10;84.60
24011;DHT22;12217;50.792;4.372;2022-07-29T12:13:49;29.40;87.30
24011;DHT22;12217;50.792;4.372;2022-07-29T12:16:14;29.80;83.80
24011;DHT22;12217;50.792;4.372;2022-07-29T12:18:40;29.90;86.90
24011;DHT22;12217;50.792;4.372;2022-07-29T12:21:06;29.90;83.30
24011;DHT22;12217;50.792;4.372;2022-07-29T12:23:33;29.60;81.10
24011;DHT22;12217;50.792;4.372;2022-07-29T12:25:59;29.60;84.00
24011;DHT22;12217;50.792;4.372;2022-07-29T12:28:25;29.90;88.00
24011;DHT22;12217;50.792;4.372;2022-07-29T12:30:51;30.20;82.30
24011;DHT22;12217;50.792;4.372;2022-07-29T12:33:20;30.20;80.30
24011;DHT22;12217;50.792;4.372;2022-07-29T12:35:48;30.20;77.40
24011;DHT22;12217;50.792;4.372;2022-07-29T12:38:15;30.10;79.00
24011;DHT22;12217;50.792;4.372;2022-07-29T12:40:42;29.80;80.10
24011;DHT22;12217;50.792;4.372;2022-07-29T12:43:17;29.60;81.60
24011;DHT22;12217;50.792;4.372;2022-07-29T12:45:46;29.70;80.50
24011;DHT22;12217;50.792;4.372;2022-07-29T12:48:14;29.50;77.90
24011;DHT22;12217;50.792;4.372;2022-07-29T12:51:00;29.10;77.60
24011;DHT22;12217;50.792;4.372;2022-07-29T12:53:26;28.60;77.10
24011;DHT22;12217;50.792;4.372;2022-07-29T12:55:53;28.30;78.50
24011;DHT22;12217;50.792;4.372;2022-07-29T13:01:11;28.30;81.10
24011;DHT22;12217;50.792;4.372;2022-07-29T13:04:01;28.90;82.40
24011;DHT22;12217;50.792;4.372;2022-07-29T13:09:08;29.00;80.00
24011;DHT22;12217;50.792;4.372;2022-07-29T13:13:59;29.30;77.80
24011;DHT22;12217;50.792;4.372;2022-07-29T13:16:25;29.10;77.90
24011;DHT22;12217;50.792;4.372;2022-07-29T13:19:04;28.90;78.10
24011;DHT22;12217;50.792;4.372;2022-07-29T13:21:30;29.10;78.90
24011;DHT22;12217;50.792;4.372;2022-07-29T13:23:55;29.00;78.40
24011;DHT22;12217;50.792;4.372;2022-07-29T13:26:21;28.90;78.50
24011;DHT22;12217;50.792;4.372;2022-07-29T13:28:47;28.80;79.20
24011;DHT22;12217;50.792;4.372;2022-07-29T13:31:12;29.00;81.20
24011;DHT22;12217;50.792;4.372;2022-07-29T13:33:38;29.40;82.00
24011;DHT22;12217;50.792;4.372;2022-07-29T13:36:03;29.80;81.60
24011;DHT22;12217;50.792;4.372;2022-07-29T13:38:29;29.40;76.80
24011;DHT22;12217;50.792;4.372;2022-07-29T13:40:54;28.90;77.90
24011;DHT22;12217;50.792;4.372;2022-07-29T13:43:20;28.80;79.00
24011;DHT22;12217;50.792;4.372;2022-07-29T13:45:46;28.90;80.20
24011;DHT22;12217;50.792;4.372;2022-07-29T13:48:11;29.30;82.10
24011;DHT22;12217;50.792;4.372;2022-07-29T13:50:37;29.20;77.90
24011;DHT22;12217;50.792;4.372;2022-07-29T13:53:03;29.30;77.20
24011;DHT22;12217;50.792;4.372;2022-07-29T13:55:29;29.30;78.70
24011;DHT22;12217;50.792;4.372;2022-07-29T13:57:54;29.70;77.50
24011;DHT22;12217;50.792;4.372;2022-07-29T14:00:20;30.00;77.00
24011;DHT22;12217;50.792;4.372;2022-07-29T14:02:46;30.10;76.70
24011;DHT22;12217;50.792;4.372;2022-07-29T14:05:11;30.10;76.10
24011;DHT22;12217;50.792;4.372;2022-07-29T14:07:38;30.40;76.50
24011;DHT22;12217;50.792;4.372;2022-07-29T14:10:07;30.70;76.00
24011;DHT22;12217;50.792;4.372;2022-07-29T14:12:33;30.60;74.40
24011;DHT22;12217;50.792;4.372;2022-07-29T14:14:59;30.30;72.60
24011;DHT22;12217;50.792;4.372;2022-07-29T14:17:24;30.40;75.00
24011;DHT22;12217;50.792;4.372;2022-07-29T14:19:50;30.50;75.90
24011;DHT22;12217;50.792;4.372;2022-07-29T14:22:16;30.70;74.50
24011;DHT22;12217;50.792;4.372;2022-07-29T14:24:44;30.80;74.40
24011;DHT22;12217;50.792;4.372;2022-07-29T14:27:10;31.00;71.10
24011;DHT22;12217;50.792;4.372;2022-07-29T14:29:36;30.90;71.00
24011;DHT22;12217;50.792;4.372;2022-07-29T14:32:03;30.90;69.20
24011;DHT22;12217;50.792;4.372;2022-07-29T14:34:29;31.00;69.80
24011;DHT22;12217;50.792;4.372;2022-07-29T14:36:54;31.10;69.10
24011;DHT22;12217;50.792;4.372;2022-07-29T14:39:21;31.20;66.90
24011;DHT22;12217;50.792;4.372;2022-07-29T14:41:48;30.60;67.40
24011;DHT22;12217;50.792;4.372;2022-07-29T14:44:14;30.50;67.40
24011;DHT22;12217;50.792;4.372;2022-07-29T14:46:40;30.10;68.40
24011;DHT22;12217;50.792;4.372;2022-07-29T14:49:05;29.90;69.10
24011;DHT22;12217;50.792;4.372;2022-07-29T14:51:32;29.90;71.10
24011;DHT22;12217;50.792;4.372;2022-07-29T14:53:57;30.30;72.20
24011;DHT22;12217;50.792;4.372;2022-07-29T14:56:23;30.30;71.10
24011;DHT22;12217;50.792;4.372;2022-07-29T14:58:48;30.40;69.90
24011;DHT22;12217;50.792;4.372;2022-07-29T15:01:14;30.60;71.50
24011;DHT22;12217;50.792;4.372;2022-07-29T15:03:40;30.70;67.40
24011;DHT22;12217;50.792;4.372;2022-07-29T15:06:05;30.50;66.40
24011;DHT22;12217;50.792;4.372;2022-07-29T15:08:31;30.30;67.20
24011;DHT22;12217;50.792;4.372;2022-07-29T15:10:57;29.90;68.70
24011;DHT22;12217;50.792;4.372;2022-07-29T15:13:26;29.90;64.80
24011;DHT22;12217;50.792;4.372;2022-07-29T15:15:52;29.90;64.20
24011;DHT22;12217;50.792;4.372;2022-07-29T15:18:17;29.80;64.40
24011;DHT22;12217;50.792;4.372;2022-07-29T15:20:43;30.30;67.10
24011;DHT22;12217;50.792;4.372;2022-07-29T15:23:11;30.70;66.20
24011;DHT22;12217;50.792;4.372;2022-07-29T15:25:38;30.80;64.60
24011;DHT22;12217;50.792;4.372;2022-07-29T15:28:04;30.70;66.10
24011;DHT22;12217;50.792;4.372;2022-07-29T15:30:33;30.90;65.80
24011;DHT22;12217;50.792;4.372;2022-07-29T15:32:58;31.00;65.20
24011;DHT22;12217;50.792;4.372;2022-07-29T15:35:24;31.00;65.70
24011;DHT22;12217;50.792;4.372;2022-07-29T15:37:50;30.80;65.90
24011;DHT22;12217;50.792;4.372;2022-07-29T15:40:15;30.90;64.60
24011;DHT22;12217;50.792;4.372;2022-07-29T15:42:41;30.40;64.30
24011;DHT22;12217;50.792;4.372;2022-07-29T15:45:07;30.10;66.70
24011;DHT22;12217;50.792;4.372;2022-07-29T15:47:35;30.20;68.90
24011;DHT22;12217;50.792;4.372;2022-07-29T15:50:00;30.40;68.80
24011;DHT22;12217;50.792;4.372;2022-07-29T15:52:26;30.40;67.70
24011;DHT22;12217;50.792;4.372;2022-07-29T15:54:56;30.10;67.00
24011;DHT22;12217;50.792;4.372;2022-07-29T15:57:22;30.20;68.00
24011;DHT22;12217;50.792;4.372;2022-07-29T15:59:48;30.20;68.40
24011;DHT22;12217;50.792;4.372;2022-07-29T16:02:14;30.10;69.50
24011;DHT22;12217;50.792;4.372;2022-07-29T16:04:40;30.10;69.00
24011;DHT22;12217;50.792;4.372;2022-07-29T16:07:06;29.80;68.90
24011;DHT22;12217;50.792;4.372;2022-07-29T16:09:32;29.70;68.90
24011;DHT22;12217;50.792;4.372;2022-07-29T16:11:57;29.10;67.60
24011;DHT22;12217;50.792;4.372;2022-07-29T16:14:23;29.00;70.00
24011;DHT22;12217;50.792;4.372;2022-07-29T16:16:49;29.30;72.70